sensor_id;sensor_type;location;lat;lon;timestamp;P1;durP1;ratioP1;P2;durP2;ratioP2
35715;SDS011;21840;44.920;8.616;2022-09-27T00:01:37;8.95;;;2.97;;
35715;SDS011;21840;44.920;8.616;2022-09-27T00:04:03;7.10;;;3.40;;
35715;SDS011;21840;44.920;8.616;2022-09-27T00:06:29;7.30;;;2.72;;
35715;SDS011;21840;44.920;8.616;2022-09-27T00:08:56;6.50;;;3.17;;
35715;SDS011;21840;44.920;8.616;2022-09-27T00:11:27;6.95;;;3.00;;
35715;SDS011;21840;44.920;8.616;2022-09-27T00:13:53;4.40;;;2.60;;
35715;SDS011;21840;44.920;8.616;2022-09-27T00:16:20;5.43;;;2.75;;
35715;SDS011;21840;44.920;8.616;2022-09-27T00:18:47;6.32;;;3.08;;
35715;SDS011;21840;44.920;8.616;2022-09-27T00:21:12;8.60;;;3.20;;
35715;SDS011;21840;44.920;8.616;2022-09-27T00:23:38;7.93;;;3.28;;
35715;SDS011;21840;44.920;8.616;2022-09-27T00:26:04;4.40;;;2.83;;
35715;SDS011;21840;44.920;8.616;2022-09-27T00:28:32;8.52;;;3.67;;
35715;SDS011;21840;44.920;8.616;2022-09-27T00:30:58;8.45;;;2.78;;
35715;SDS011;21840;44.920;8.616;2022-09-27T00:33:24;7.03;;;2.75;;
35715;SDS011;21840;44.920;8.616;2022-09-27T00:35:50;4.43;;;2.58;;
35715;SDS011;21840;44.920;8.616;2022-09-27T00:38:16;5.30;;;2.60;;
35715;SDS011;21840;44.920;8.616;2022-09-27T00:40:42;4.47;;;2.70;;
35715;SDS011;21840;44.920;8.616;2022-09-27T00:43:18;5.13;;;2.97;;
35715;SDS011;21840;44.920;8.616;2022-09-27T00:45:50;4.65;;;2.55;;
35715;SDS011;21840;44.920;8.616;2022-09-27T00:48:20;5.55;;;2.70;;
35715;SDS011;21840;44.920;8.616;2022-09-27T00:50:52;4.60;;;2.72;;
35715;SDS011;21840;44.920;8.616;2022-09-27T00:53:32;6.57;;;2.80;;
35715;SDS011;21840;44.920;8.616;2022-09-27T00:56:05;8.10;;;3.42;;
35715;SDS011;21840;44.920;8.616;2022-09-27T00:58:38;3.40;;;2.95;;
35715;SDS011;21840;44.920;8.616;2022-09-27T01:01:10;8.27;;;3.10;;
35715;SDS011;21840;44.920;8.616;2022-09-27T01:03:48;4.03;;;3.10;;
35715;SDS011;21840;44.920;8.616;2022-09-27T01:06:20;6.80;;;3.38;;
35715;SDS011;21840;44.920;8.616;2022-09-27T01:08:46;7.32;;;3.17;;
35715;SDS011;21840;44.920;8.616;2022-09-27T01:11:13;6.35;;;3.20;;
35715;SDS011;21840;44.920;8.616;2022-09-27T01:16:45;6.72;;;2.63;;
35715;SDS011;21840;44.920;8.616;2022-09-27T01:38:53;9.20;;;3.90;;
35715;SDS011;21840;44.920;8.616;2022-09-27T01:41:26;5.45;;;3.80;;
35715;SDS011;21840;44.920;8.616;2022-09-27T01:47:18;6.13;;;3.60;;
35715;SDS011;21840;44.920;8.616;2022-09-27T01:49:53;5.00;;;3.50;;
35715;SDS011;21840;44.920;8.616;2022-09-27T01:52:25;8.25;;;3.80;;
35715;SDS011;21840;44.920;8.616;2022-09-27T01:54:58;5.93;;;4.05;;
35715;SDS011;21840;44.920;8.616;2022-09-27T01:57:39;7.63;;;3.57;;
35715;SDS011;21840;44.920;8.616;2022-09-27T02:00:16;7.18;;;4.47;;
35715;SDS011;21840;44.920;8.616;2022-09-27T02:02:47;6.55;;;3.75;;
35715;SDS011;21840;44.920;8.616;2022-09-27T02:05:30;7.38;;;3.78;;
35715;SDS011;21840;44.920;8.616;2022-09-27T02:08:19;10.55;;;3.47;;
35715;SDS011;21840;44.920;8.616;2022-09-27T02:10:56;8.02;;;3.90;;
35715;SDS011;21840;44.920;8.616;2022-09-27T02:13:32;8.10;;;3.38;;
35715;SDS011;21840;44.920;8.616;2022-09-27T02:16:27;10.45;;;3.55;;
35715;SDS011;21840;44.920;8.616;2022-09-27T02:19:08;6.85;;;4.28;;
35715;SDS011;21840;44.920;8.616;2022-09-27T02:21:41;7.38;;;4.30;;
35715;SDS011;21840;44.920;8.616;2022-09-27T02:24:11;6.40;;;3.92;;
35715;SDS011;21840;44.920;8.616;2022-09-27T02:26:44;5.57;;;3.90;;
35715;SDS011;21840;44.920;8.616;2022-09-27T02:29:23;4.47;;;3.88;;
35715;SDS011;21840;44.920;8.616;2022-09-27T02:31:58;8.32;;;4.40;;
35715;SDS011;21840;44.920;8.616;2022-09-27T02:34:28;8.95;;;4.00;;
35715;SDS011;21840;44.920;8.616;2022-09-27T02:36:58;10.15;;;4.25;;
35715;SDS011;21840;44.920;8.616;2022-09-27T02:39:24;5.68;;;3.40;;
35715;SDS011;21840;44.920;8.616;2022-09-27T02:42:03;4.95;;;3.70;;
35715;SDS011;21840;44.920;8.616;2022-09-27T02:44:30;5.55;;;3.75;;
35715;SDS011;21840;44.920;8.616;2022-09-27T02:52:37;7.28;;;4.53;;
35715;SDS011;21840;44.920;8.616;2022-09-27T02:55:45;7.97;;;4.20;;
35715;SDS011;21840;44.920;8.616;2022-09-27T03:04:26;11.25;;;4.00;;
35715;SDS011;21840;44.920;8.616;2022-09-27T03:07:01;7.60;;;4.10;;
35715;SDS011;21840;44.920;8.616;2022-09-27T03:09:28;5.15;;;4.30;;
35715;SDS011;21840;44.920;8.616;2022-09-27T03:12:05;9.93;;;3.90;;
35715;SDS011;21840;44.920;8.616;2022-09-27T03:14:30;7.20;;;3.78;;
35715;SDS011;21840;44.920;8.616;2022-09-27T03:17:08;7.10;;;4.00;;
35715;SDS011;21840;44.920;8.616;2022-09-27T03:20:05;8.88;;;4.75;;
35715;SDS011;21840;44.920;8.616;2022-09-27T03:22:55;5.70;;;4.07;;
35715;SDS011;21840;44.920;8.616;2022-09-27T03:25:20;8.68;;;4.35;;
35715;SDS011;21840;44.920;8.616;2022-09-27T03:27:46;6.53;;;4.65;;
35715;SDS011;21840;44.920;8.616;2022-09-27T03:30:12;7.53;;;4.38;;
35715;SDS011;21840;44.920;8.616;2022-09-27T03:32:45;7.68;;;4.35;;
35715;SDS011;21840;44.920;8.616;2022-09-27T03:35:30;6.25;;;3.80;;
35715;SDS011;21840;44.920;8.616;2022-09-27T03:37:56;8.48;;;4.10;;
35715;SDS011;21840;44.920;8.616;2022-09-27T03:40:21;9.40;;;3.92;;
35715;SDS011;21840;44.920;8.616;2022-09-27T03:42:47;8.10;;;3.80;;
35715;SDS011;21840;44.920;8.616;2022-09-27T03:45:14;7.63;;;3.60;;
35715;SDS011;21840;44.920;8.616;2022-09-27T03:47:40;9.25;;;3.63;;
35715;SDS011;21840;44.920;8.616;2022-09-27T03:50:06;6.05;;;3.78;;
35715;SDS011;21840;44.920;8.616;2022-09-27T03:52:33;5.97;;;3.88;;
35715;SDS011;21840;44.920;8.616;2022-09-27T03:54:59;6.20;;;4.30;;
35715;SDS011;21840;44.920;8.616;2022-09-27T03:57:24;9.48;;;4.57;;
35715;SDS011;21840;44.920;8.616;2022-09-27T03:59:50;6.93;;;4.63;;
35715;SDS011;21840;44.920;8.616;2022-09-27T04:02:42;10.10;;;4.55;;
35715;SDS011;21840;44.920;8.616;2022-09-27T04:05:40;7.68;;;4.05;;
35715;SDS011;21840;44.920;8.616;2022-09-27T04:08:10;7.97;;;3.67;;
35715;SDS011;21840;44.920;8.616;2022-09-27T04:10:36;6.05;;;3.67;;
35715;SDS011;21840;44.920;8.616;2022-09-27T04:13:03;8.85;;;4.43;;
35715;SDS011;21840;44.920;8.616;2022-09-27T04:15:34;6.07;;;3.88;;
35715;SDS011;21840;44.920;8.616;2022-09-27T04:18:18;10.18;;;4.18;;
35715;SDS011;21840;44.920;8.616;2022-09-27T04:21:02;7.35;;;4.55;;
35715;SDS011;21840;44.920;8.616;2022-09-27T04:23:30;6.13;;;4.28;;
35715;SDS011;21840;44.920;8.616;2022-09-27T04:25:56;7.97;;;4.38;;
35715;SDS011;21840;44.920;8.616;2022-09-27T04:28:46;8.13;;;4.38;;
35715;SDS011;21840;44.920;8.616;2022-09-27T04:31:12;7.30;;;4.45;;
35715;SDS011;21840;44.920;8.616;2022-09-27T04:33:53;8.75;;;4.95;;
35715;SDS011;21840;44.920;8.616;2022-09-27T04:36:25;5.78;;;4.32;;
35715;SDS011;21840;44.920;8.616;2022-09-27T04:39:06;6.57;;;4.78;;
35715;SDS011;21840;44.920;8.616;2022-09-27T04:41:36;9.38;;;4.72;;
35715;SDS011;21840;44.920;8.616;2022-09-27T04:44:02;8.50;;;5.32;;
35715;SDS011;21840;44.920;8.616;2022-09-27T04:46:29;7.47;;;4.47;;
35715;SDS011;21840;44.920;8.616;2022-09-27T04:48:59;12.00;;;5.65;;
35715;SDS011;21840;44.920;8.616;2022-09-27T04:51:25;7.82;;;4.65;;
35715;SDS011;21840;44.920;8.616;2022-09-27T04:53:52;10.75;;;5.40;;
35715;SDS011;21840;44.920;8.616;2022-09-27T04:56:20;7.93;;;4.78;;
35715;SDS011;21840;44.920;8.616;2022-09-27T04:58:46;7.10;;;4.50;;
35715;SDS011;21840;44.920;8.616;2022-09-27T05:01:12;8.68;;;4.70;;
35715;SDS011;21840;44.920;8.616;2022-09-27T05:03:57;8.50;;;5.05;;
35715;SDS011;21840;44.920;8.616;2022-09-27T05:06:24;6.95;;;4.25;;
35715;SDS011;21840;44.920;8.616;2022-09-27T05:08:54;6.82;;;4.20;;
35715;SDS011;21840;44.920;8.616;2022-09-27T05:11:25;9.20;;;5.03;;
35715;SDS011;21840;44.920;8.616;2022-09-27T05:14:09;9.48;;;5.25;;
35715;SDS011;21840;44.920;8.616;2022-09-27T05:16:47;8.75;;;4.68;;
35715;SDS011;21840;44.920;8.616;2022-09-27T05:19:44;11.68;;;5.53;;
35715;SDS011;21840;44.920;8.616;2022-09-27T05:22:39;7.47;;;4.70;;
35715;SDS011;21840;44.920;8.616;2022-09-27T05:25:05;6.88;;;4.47;;
35715;SDS011;21840;44.920;8.616;2022-09-27T05:27:31;10.55;;;5.20;;
35715;SDS011;21840;44.920;8.616;2022-09-27T05:29:57;10.38;;;4.70;;
35715;SDS011;21840;44.920;8.616;2022-09-27T05:32:33;7.07;;;4.60;;
35715;SDS011;21840;44.920;8.616;2022-09-27T05:35:18;6.22;;;4.50;;
35715;SDS011;21840;44.920;8.616;2022-09-27T05:37:54;7.15;;;4.53;;
35715;SDS011;21840;44.920;8.616;2022-09-27T05:40:22;6.47;;;4.45;;
35715;SDS011;21840;44.920;8.616;2022-09-27T05:42:52;10.15;;;4.22;;
35715;SDS011;21840;44.920;8.616;2022-09-27T05:45:20;7.57;;;4.47;;
35715;SDS011;21840;44.920;8.616;2022-09-27T05:50:19;8.07;;;4.38;;
35715;SDS011;21840;44.920;8.616;2022-09-27T05:52:45;8.40;;;4.25;;
35715;SDS011;21840;44.920;8.616;2022-09-27T05:55:12;9.05;;;4.45;;
35715;SDS011;21840;44.920;8.616;2022-09-27T05:57:38;7.38;;;3.83;;
35715;SDS011;21840;44.920;8.616;2022-09-27T06:00:06;10.05;;;4.13;;
35715;SDS011;21840;44.920;8.616;2022-09-27T06:02:38;7.45;;;3.70;;
35715;SDS011;21840;44.920;8.616;2022-09-27T06:05:22;4.97;;;3.47;;
35715;SDS011;21840;44.920;8.616;2022-09-27T06:08:08;9.15;;;4.43;;
35715;SDS011;21840;44.920;8.616;2022-09-27T06:10:41;5.80;;;3.67;;
35715;SDS011;21840;44.920;8.616;2022-09-27T06:13:12;6.47;;;4.10;;
35715;SDS011;21840;44.920;8.616;2022-09-27T06:15:41;9.38;;;4.90;;
35715;SDS011;21840;44.920;8.616;2022-09-27T06:18:09;9.13;;;4.18;;
35715;SDS011;21840;44.920;8.616;2022-09-27T06:20:40;6.97;;;4.22;;
35715;SDS011;21840;44.920;8.616;2022-09-27T06:23:08;7.55;;;3.97;;
35715;SDS011;21840;44.920;8.616;2022-09-27T06:25:43;10.23;;;4.47;;
35715;SDS011;21840;44.920;8.616;2022-09-27T06:28:20;9.45;;;3.90;;
35715;SDS011;21840;44.920;8.616;2022-09-27T06:30:51;9.70;;;4.32;;
35715;SDS011;21840;44.920;8.616;2022-09-27T06:33:42;7.70;;;3.78;;
35715;SDS011;21840;44.920;8.616;2022-09-27T06:36:08;11.30;;;4.80;;
35715;SDS011;21840;44.920;8.616;2022-09-27T06:38:36;14.02;;;5.20;;
35715;SDS011;21840;44.920;8.616;2022-09-27T06:41:18;15.48;;;5.28;;
35715;SDS011;21840;44.920;8.616;2022-09-27T06:44:06;7.13;;;4.90;;
35715;SDS011;21840;44.920;8.616;2022-09-27T06:46:38;6.18;;;4.38;;
35715;SDS011;21840;44.920;8.616;2022-09-27T06:49:30;11.93;;;4.82;;
35715;SDS011;21840;44.920;8.616;2022-09-27T06:51:56;13.30;;;5.93;;
35715;SDS011;21840;44.920;8.616;2022-09-27T06:54:22;14.57;;;5.95;;
35715;SDS011;21840;44.920;8.616;2022-09-27T06:56:47;10.25;;;6.53;;
35715;SDS011;21840;44.920;8.616;2022-09-27T06:59:13;12.38;;;5.88;;
35715;SDS011;21840;44.920;8.616;2022-09-27T07:05:09;10.77;;;6.57;;
35715;SDS011;21840;44.920;8.616;2022-09-27T07:07:57;13.57;;;5.72;;
35715;SDS011;21840;44.920;8.616;2022-09-27T07:10:24;7.28;;;6.05;;
35715;SDS011;21840;44.920;8.616;2022-09-27T07:12:52;10.73;;;6.70;;
35715;SDS011;21840;44.920;8.616;2022-09-27T07:15:19;15.18;;;7.97;;
35715;SDS011;21840;44.920;8.616;2022-09-27T07:17:55;11.38;;;8.10;;
35715;SDS011;21840;44.920;8.616;2022-09-27T07:20:27;12.27;;;7.60;;
35715;SDS011;21840;44.920;8.616;2022-09-27T07:22:57;15.40;;;7.20;;
35715;SDS011;21840;44.920;8.616;2022-09-27T07:25:23;10.52;;;7.13;;
35715;SDS011;21840;44.920;8.616;2022-09-27T07:27:50;12.63;;;8.18;;
35715;SDS011;21840;44.920;8.616;2022-09-27T07:30:19;17.58;;;8.80;;
35715;SDS011;21840;44.920;8.616;2022-09-27T07:32:45;16.63;;;9.40;;
35715;SDS011;21840;44.920;8.616;2022-09-27T07:35:12;19.67;;;8.95;;
35715;SDS011;21840;44.920;8.616;2022-09-27T07:37:42;13.75;;;8.38;;
35715;SDS011;21840;44.920;8.616;2022-09-27T07:40:11;18.08;;;8.20;;
35715;SDS011;21840;44.920;8.616;2022-09-27T07:42:37;13.57;;;8.68;;
35715;SDS011;21840;44.920;8.616;2022-09-27T07:45:04;18.40;;;8.25;;
35715;SDS011;21840;44.920;8.616;2022-09-27T07:47:49;19.48;;;8.68;;
35715;SDS011;21840;44.920;8.616;2022-09-27T07:50:20;15.67;;;8.00;;
35715;SDS011;21840;44.920;8.616;2022-09-27T07:52:56;15.35;;;8.95;;
35715;SDS011;21840;44.920;8.616;2022-09-27T07:55:33;12.27;;;7.93;;
35715;SDS011;21840;44.920;8.616;2022-09-27T07:58:07;11.95;;;8.30;;
35715;SDS011;21840;44.920;8.616;2022-09-27T08:00:35;13.55;;;7.85;;
35715;SDS011;21840;44.920;8.616;2022-09-27T08:03:05;13.45;;;8.27;;
35715;SDS011;21840;44.920;8.616;2022-09-27T08:05:33;11.85;;;8.95;;
35715;SDS011;21840;44.920;8.616;2022-09-27T08:08:00;14.20;;;8.23;;
35715;SDS011;21840;44.920;8.616;2022-09-27T08:10:27;12.10;;;8.75;;
35715;SDS011;21840;44.920;8.616;2022-09-27T08:13:02;15.48;;;8.35;;
35715;SDS011;21840;44.920;8.616;2022-09-27T08:15:32;13.13;;;8.95;;
35715;SDS011;21840;44.920;8.616;2022-09-27T08:18:04;20.67;;;9.25;;
35715;SDS011;21840;44.920;8.616;2022-09-27T08:20:48;15.63;;;9.00;;
35715;SDS011;21840;44.920;8.616;2022-09-27T08:23:32;15.10;;;9.20;;
35715;SDS011;21840;44.920;8.616;2022-09-27T08:26:21;13.18;;;9.65;;
35715;SDS011;21840;44.920;8.616;2022-09-27T08:28:59;12.93;;;9.30;;
35715;SDS011;21840;44.920;8.616;2022-09-27T08:31:29;11.30;;;8.68;;
35715;SDS011;21840;44.920;8.616;2022-09-27T08:33:55;18.80;;;8.98;;
35715;SDS011;21840;44.920;8.616;2022-09-27T08:36:22;12.80;;;9.23;;
35715;SDS011;21840;44.920;8.616;2022-09-27T08:38:49;16.77;;;9.82;;
35715;SDS011;21840;44.920;8.616;2022-09-27T08:52:46;13.45;;;10.32;;
35715;SDS011;21840;44.920;8.616;2022-09-27T08:55:21;16.05;;;11.00;;
35715;SDS011;21840;44.920;8.616;2022-09-27T08:57:55;19.45;;;10.32;;
35715;SDS011;21840;44.920;8.616;2022-09-27T09:00:24;16.33;;;10.02;;
35715;SDS011;21840;44.920;8.616;2022-09-27T09:02:54;11.80;;;9.68;;
35715;SDS011;21840;44.920;8.616;2022-09-27T09:05:33;19.30;;;10.65;;
35715;SDS011;21840;44.920;8.616;2022-09-27T09:20:35;18.38;;;11.23;;
35715;SDS011;21840;44.920;8.616;2022-09-27T09:34:47;17.33;;;10.88;;
35715;SDS011;21840;44.920;8.616;2022-09-27T09:37:21;17.30;;;10.65;;
35715;SDS011;21840;44.920;8.616;2022-09-27T09:40:18;18.50;;;10.10;;
35715;SDS011;21840;44.920;8.616;2022-09-27T09:45:35;18.17;;;9.57;;
35715;SDS011;21840;44.920;8.616;2022-09-27T09:51:14;15.05;;;8.90;;
35715;SDS011;21840;44.920;8.616;2022-09-27T09:54:01;13.43;;;10.38;;
35715;SDS011;21840;44.920;8.616;2022-09-27T09:56:37;23.00;;;9.65;;
35715;SDS011;21840;44.920;8.616;2022-09-27T09:59:12;14.05;;;9.63;;
35715;SDS011;21840;44.920;8.616;2022-09-27T10:01:44;12.82;;;10.48;;
35715;SDS011;21840;44.920;8.616;2022-09-27T10:04:33;14.73;;;10.02;;
35715;SDS011;21840;44.920;8.616;2022-09-27T10:07:00;17.70;;;9.43;;
35715;SDS011;21840;44.920;8.616;2022-09-27T10:09:30;13.57;;;9.13;;
35715;SDS011;21840;44.920;8.616;2022-09-27T10:12:17;15.95;;;8.70;;
35715;SDS011;21840;44.920;8.616;2022-09-27T10:14:45;14.93;;;9.65;;
35715;SDS011;21840;44.920;8.616;2022-09-27T10:17:13;24.05;;;9.02;;
35715;SDS011;21840;44.920;8.616;2022-09-27T10:19:43;14.65;;;9.38;;
35715;SDS011;21840;44.920;8.616;2022-09-27T10:24:59;17.27;;;9.32;;
35715;SDS011;21840;44.920;8.616;2022-09-27T10:27:48;18.10;;;8.40;;
35715;SDS011;21840;44.920;8.616;2022-09-27T10:30:28;13.00;;;8.77;;
35715;SDS011;21840;44.920;8.616;2022-09-27T10:33:13;21.27;;;9.00;;
35715;SDS011;21840;44.920;8.616;2022-09-27T10:35:45;17.15;;;8.73;;
35715;SDS011;21840;44.920;8.616;2022-09-27T10:41:16;22.55;;;9.40;;
35715;SDS011;21840;44.920;8.616;2022-09-27T10:43:48;15.07;;;8.27;;
35715;SDS011;21840;44.920;8.616;2022-09-27T10:49:24;13.60;;;7.15;;
35715;SDS011;21840;44.920;8.616;2022-09-27T10:51:52;13.48;;;8.20;;
35715;SDS011;21840;44.920;8.616;2022-09-27T10:54:21;13.23;;;8.02;;
35715;SDS011;21840;44.920;8.616;2022-09-27T10:57:34;14.70;;;7.70;;
35715;SDS011;21840;44.920;8.616;2022-09-27T10:59:45;13.40;;;7.55;;
35715;SDS011;21840;44.920;8.616;2022-09-27T11:02:23;13.70;;;7.53;;
35715;SDS011;21840;44.920;8.616;2022-09-27T11:05:10;20.70;;;8.77;;
35715;SDS011;21840;44.920;8.616;2022-09-27T11:07:49;22.65;;;10.05;;
35715;SDS011;21840;44.920;8.616;2022-09-27T11:10:25;14.43;;;8.02;;
35715;SDS011;21840;44.920;8.616;2022-09-27T11:57:35;8.35;;;5.15;;
35715;SDS011;21840;44.920;8.616;2022-09-27T12:14:13;11.38;;;3.85;;
35715;SDS011;21840;44.920;8.616;2022-09-27T12:16:47;10.98;;;3.90;;
35715;SDS011;21840;44.920;8.616;2022-09-27T12:19:29;8.93;;;3.30;;
35715;SDS011;21840;44.920;8.616;2022-09-27T12:22:31;4.60;;;3.33;;
35715;SDS011;21840;44.920;8.616;2022-09-27T12:25:02;7.17;;;2.20;;
35715;SDS011;21840;44.920;8.616;2022-09-27T12:27:38;4.80;;;2.13;;
35715;SDS011;21840;44.920;8.616;2022-09-27T12:30:11;8.48;;;3.10;;
35715;SDS011;21840;44.920;8.616;2022-09-27T12:35:27;8.70;;;2.75;;
35715;SDS011;21840;44.920;8.616;2022-09-27T12:38:00;4.65;;;2.33;;
35715;SDS011;21840;44.920;8.616;2022-09-27T12:43:21;5.85;;;2.55;;
35715;SDS011;21840;44.920;8.616;2022-09-27T12:52:03;7.30;;;2.20;;
35715;SDS011;21840;44.920;8.616;2022-09-27T13:02:52;5.78;;;1.88;;
35715;SDS011;21840;44.920;8.616;2022-09-27T13:11:34;3.65;;;1.85;;
35715;SDS011;21840;44.920;8.616;2022-09-27T13:14:19;3.10;;;1.45;;
35715;SDS011;21840;44.920;8.616;2022-09-27T13:16:49;4.65;;;1.67;;
35715;SDS011;21840;44.920;8.616;2022-09-27T13:19:37;3.83;;;1.55;;
35715;SDS011;21840;44.920;8.616;2022-09-27T13:22:07;9.43;;;1.85;;
35715;SDS011;21840;44.920;8.616;2022-09-27T13:25:01;5.40;;;1.50;;
35715;SDS011;21840;44.920;8.616;2022-09-27T13:27:54;5.75;;;1.17;;
35715;SDS011;21840;44.920;8.616;2022-09-27T13:35:40;2.10;;;1.25;;
35715;SDS011;21840;44.920;8.616;2022-09-27T13:40:49;6.53;;;1.38;;
35715;SDS011;21840;44.920;8.616;2022-09-27T13:43:27;3.13;;;1.20;;
35715;SDS011;21840;44.920;8.616;2022-09-27T13:46:12;4.57;;;1.38;;
35715;SDS011;21840;44.920;8.616;2022-09-27T13:48:49;2.25;;;1.30;;
35715;SDS011;21840;44.920;8.616;2022-09-27T14:00:09;3.42;;;1.50;;
35715;SDS011;21840;44.920;8.616;2022-09-27T14:03:03;2.30;;;1.27;;
35715;SDS011;21840;44.920;8.616;2022-09-27T14:05:37;5.28;;;1.25;;
35715;SDS011;21840;44.920;8.616;2022-09-27T14:08:13;2.63;;;1.35;;
35715;SDS011;21840;44.920;8.616;2022-09-27T14:11:13;2.72;;;1.17;;
35715;SDS011;21840;44.920;8.616;2022-09-27T14:13:44;4.63;;;1.75;;
35715;SDS011;21840;44.920;8.616;2022-09-27T14:16:17;5.10;;;1.50;;
35715;SDS011;21840;44.920;8.616;2022-09-27T14:18:52;3.80;;;1.35;;
35715;SDS011;21840;44.920;8.616;2022-09-27T14:21:33;3.10;;;1.58;;
35715;SDS011;21840;44.920;8.616;2022-09-27T14:24:31;4.03;;;1.85;;
35715;SDS011;21840;44.920;8.616;2022-09-27T14:27:24;3.08;;;1.20;;
35715;SDS011;21840;44.920;8.616;2022-09-27T14:32:29;3.38;;;1.20;;
35715;SDS011;21840;44.920;8.616;2022-09-27T14:35:09;6.80;;;2.00;;
35715;SDS011;21840;44.920;8.616;2022-09-27T14:37:57;2.50;;;1.30;;
35715;SDS011;21840;44.920;8.616;2022-09-27T14:40:24;2.33;;;1.35;;
35715;SDS011;21840;44.920;8.616;2022-09-27T14:42:57;3.17;;;1.27;;
35715;SDS011;21840;44.920;8.616;2022-09-27T14:45:34;4.50;;;1.35;;
35715;SDS011;21840;44.920;8.616;2022-09-27T14:48:03;3.38;;;1.48;;
35715;SDS011;21840;44.920;8.616;2022-09-27T14:50:57;2.53;;;1.30;;
35715;SDS011;21840;44.920;8.616;2022-09-27T14:53:34;5.18;;;1.30;;
35715;SDS011;21840;44.920;8.616;2022-09-27T14:56:05;3.78;;;1.30;;
35715;SDS011;21840;44.920;8.616;2022-09-27T14:58:32;4.53;;;1.65;;
35715;SDS011;21840;44.920;8.616;2022-09-27T15:00:58;5.70;;;1.10;;
35715;SDS011;21840;44.920;8.616;2022-09-27T15:03:30;4.18;;;1.40;;
35715;SDS011;21840;44.920;8.616;2022-09-27T15:05:57;2.90;;;1.40;;
35715;SDS011;21840;44.920;8.616;2022-09-27T15:08:25;3.65;;;1.23;;
35715;SDS011;21840;44.920;8.616;2022-09-27T15:10:58;3.33;;;1.35;;
35715;SDS011;21840;44.920;8.616;2022-09-27T15:13:25;6.38;;;1.13;;
35715;SDS011;21840;44.920;8.616;2022-09-27T15:15:52;3.25;;;1.30;;
35715;SDS011;21840;44.920;8.616;2022-09-27T15:21:32;1.85;;;1.20;;
35715;SDS011;21840;44.920;8.616;2022-09-27T15:23:59;7.00;;;1.30;;
35715;SDS011;21840;44.920;8.616;2022-09-27T15:26:32;6.93;;;1.30;;
35715;SDS011;21840;44.920;8.616;2022-09-27T15:29:05;2.78;;;1.40;;
35715;SDS011;21840;44.920;8.616;2022-09-27T15:31:32;4.00;;;1.48;;
35715;SDS011;21840;44.920;8.616;2022-09-27T15:33:59;1.88;;;1.30;;
35715;SDS011;21840;44.920;8.616;2022-09-27T15:36:48;2.72;;;1.20;;
35715;SDS011;21840;44.920;8.616;2022-09-27T15:39:38;5.63;;;1.67;;
35715;SDS011;21840;44.920;8.616;2022-09-27T15:52:46;3.90;;;1.40;;
35715;SDS011;21840;44.920;8.616;2022-09-27T15:55:19;3.67;;;1.83;;
35715;SDS011;21840;44.920;8.616;2022-09-27T15:57:58;6.22;;;1.42;;
35715;SDS011;21840;44.920;8.616;2022-09-27T16:00:29;5.82;;;1.65;;
35715;SDS011;21840;44.920;8.616;2022-09-27T16:02:54;5.70;;;3.90;;
35715;SDS011;21840;44.920;8.616;2022-09-27T16:05:20;4.55;;;2.90;;
35715;SDS011;21840;44.920;8.616;2022-09-27T16:07:51;8.52;;;2.97;;
35715;SDS011;21840;44.920;8.616;2022-09-27T16:10:18;5.65;;;1.88;;
35715;SDS011;21840;44.920;8.616;2022-09-27T16:12:45;8.25;;;1.98;;
35715;SDS011;21840;44.920;8.616;2022-09-27T16:15:11;9.25;;;2.38;;
35715;SDS011;21840;44.920;8.616;2022-09-27T16:17:38;9.10;;;2.45;;
35715;SDS011;21840;44.920;8.616;2022-09-27T16:20:08;8.98;;;2.47;;
35715;SDS011;21840;44.920;8.616;2022-09-27T16:22:41;14.95;;;5.20;;
35715;SDS011;21840;44.920;8.616;2022-09-27T16:25:07;14.02;;;3.88;;
35715;SDS011;21840;44.920;8.616;2022-09-27T16:27:36;5.20;;;2.33;;
35715;SDS011;21840;44.920;8.616;2022-09-27T16:30:02;8.57;;;2.80;;
35715;SDS011;21840;44.920;8.616;2022-09-27T16:32:28;10.30;;;3.00;;
35715;SDS011;21840;44.920;8.616;2022-09-27T16:34:54;8.88;;;2.05;;
35715;SDS011;21840;44.920;8.616;2022-09-27T16:37:20;9.50;;;2.33;;
35715;SDS011;21840;44.920;8.616;2022-09-27T16:39:45;13.00;;;3.05;;
35715;SDS011;21840;44.920;8.616;2022-09-27T16:42:11;10.68;;;2.53;;
35715;SDS011;21840;44.920;8.616;2022-09-27T16:44:37;12.00;;;2.35;;
35715;SDS011;21840;44.920;8.616;2022-09-27T16:47:03;15.38;;;2.65;;
35715;SDS011;21840;44.920;8.616;2022-09-27T16:49:31;8.30;;;2.72;;
35715;SDS011;21840;44.920;8.616;2022-09-27T16:52:15;10.95;;;2.17;;
35715;SDS011;21840;44.920;8.616;2022-09-27T16:54:41;12.82;;;3.38;;
35715;SDS011;21840;44.920;8.616;2022-09-27T16:57:07;11.98;;;2.42;;
35715;SDS011;21840;44.920;8.616;2022-09-27T16:59:33;13.15;;;2.40;;
35715;SDS011;21840;44.920;8.616;2022-09-27T17:01:59;12.80;;;2.60;;
35715;SDS011;21840;44.920;8.616;2022-09-27T17:04:25;11.93;;;3.03;;
35715;SDS011;21840;44.920;8.616;2022-09-27T17:06:52;8.50;;;2.83;;
35715;SDS011;21840;44.920;8.616;2022-09-27T17:09:19;8.65;;;2.10;;
35715;SDS011;21840;44.920;8.616;2022-09-27T17:11:45;7.25;;;3.10;;
35715;SDS011;21840;44.920;8.616;2022-09-27T17:14:13;11.20;;;2.60;;
35715;SDS011;21840;44.920;8.616;2022-09-27T17:16:41;12.07;;;2.47;;
35715;SDS011;21840;44.920;8.616;2022-09-27T17:19:08;7.88;;;2.28;;
35715;SDS011;21840;44.920;8.616;2022-09-27T17:21:37;8.40;;;2.30;;
35715;SDS011;21840;44.920;8.616;2022-09-27T17:24:02;13.45;;;2.83;;
35715;SDS011;21840;44.920;8.616;2022-09-27T17:26:29;13.23;;;2.25;;
35715;SDS011;21840;44.920;8.616;2022-09-27T17:28:56;7.18;;;1.70;;
35715;SDS011;21840;44.920;8.616;2022-09-27T17:31:23;10.90;;;2.30;;
35715;SDS011;21840;44.920;8.616;2022-09-27T17:33:49;7.68;;;2.40;;
35715;SDS011;21840;44.920;8.616;2022-09-27T17:36:20;13.60;;;2.67;;
35715;SDS011;21840;44.920;8.616;2022-09-27T17:38:48;14.73;;;2.97;;
35715;SDS011;21840;44.920;8.616;2022-09-27T17:41:15;9.85;;;2.58;;
35715;SDS011;21840;44.920;8.616;2022-09-27T17:43:44;11.20;;;3.55;;
35715;SDS011;21840;44.920;8.616;2022-09-27T17:46:36;10.65;;;2.78;;
35715;SDS011;21840;44.920;8.616;2022-09-27T17:49:02;20.23;;;4.22;;
35715;SDS011;21840;44.920;8.616;2022-09-27T17:51:48;14.95;;;2.58;;
35715;SDS011;21840;44.920;8.616;2022-09-27T17:54:15;15.70;;;4.10;;
35715;SDS011;21840;44.920;8.616;2022-09-27T17:56:43;8.18;;;2.35;;
35715;SDS011;21840;44.920;8.616;2022-09-27T17:59:10;11.00;;;3.20;;
35715;SDS011;21840;44.920;8.616;2022-09-27T18:01:40;16.88;;;2.92;;
35715;SDS011;21840;44.920;8.616;2022-09-27T18:04:08;14.32;;;2.90;;
35715;SDS011;21840;44.920;8.616;2022-09-27T18:06:38;10.75;;;3.03;;
35715;SDS011;21840;44.920;8.616;2022-09-27T18:09:06;19.50;;;2.72;;
35715;SDS011;21840;44.920;8.616;2022-09-27T18:11:33;8.75;;;2.00;;
35715;SDS011;21840;44.920;8.616;2022-09-27T18:13:59;10.45;;;2.55;;
35715;SDS011;21840;44.920;8.616;2022-09-27T18:16:29;11.18;;;3.10;;
35715;SDS011;21840;44.920;8.616;2022-09-27T18:19:01;10.23;;;2.60;;
35715;SDS011;21840;44.920;8.616;2022-09-27T18:21:29;14.82;;;3.10;;
35715;SDS011;21840;44.920;8.616;2022-09-27T18:23:56;10.75;;;3.03;;
35715;SDS011;21840;44.920;8.616;2022-09-27T18:26:24;12.35;;;3.47;;
35715;SDS011;21840;44.920;8.616;2022-09-27T18:28:58;18.75;;;3.67;;
35715;SDS011;21840;44.920;8.616;2022-09-27T18:31:26;13.13;;;3.40;;
35715;SDS011;21840;44.920;8.616;2022-09-27T18:33:51;10.77;;;3.17;;
35715;SDS011;21840;44.920;8.616;2022-09-27T18:36:18;15.82;;;3.75;;
35715;SDS011;21840;44.920;8.616;2022-09-27T18:38:50;18.13;;;4.07;;
35715;SDS011;21840;44.920;8.616;2022-09-27T18:41:20;16.90;;;4.05;;
35715;SDS011;21840;44.920;8.616;2022-09-27T18:43:47;13.75;;;3.47;;
35715;SDS011;21840;44.920;8.616;2022-09-27T18:46:14;13.88;;;3.70;;